Time;durP1;ratioP1;P1;durP2;ratioP2;P2;SDS_P1;SDS_P2;PMS_P1;PMS_P2;Temp;Humidity;BMP_temperature;BMP_pressure;BME280_temperature;BME280_humidity;BME280_pressure;Samples;Min_cycle;Max_cycle;Signal;HPM_P1;HPM_P2
2021/04/26 00:00:15;;;;;;;3.00;1.30;;;7.60;48.10;;;;;;5074456;28;20048;-72
2021/04/26 00:02:41;;;;;;;2.70;1.35;;;7.60;48.20;;;;;;5074417;28;20028;-73
2021/04/26 00:05:08;;;;;;;3.00;1.27;;;7.60;48.10;;;;;;5074720;28;20039;-73
2021/04/26 00:07:34;;;;;;;4.32;1.60;;;7.50;48.20;;;;;;5072686;28;20024;-73
2021/04/26 00:09:59;;;;;;;2.47;1.30;;;7.50;48.20;;;;;;5080685;28;20054;-72
2021/04/26 00:12:25;;;;;;;3.05;1.30;;;7.50;48.30;;;;;;5072575;28;20020;-72
2021/04/26 00:14:51;;;;;;;2.95;1.50;;;7.50;48.20;;;;;;5074690;28;20116;-73
2021/04/26 00:17:16;;;;;;;3.55;1.40;;;7.50;47.90;;;;;;5068880;28;20087;-72
2021/04/26 00:19:42;;;;;;;4.13;1.40;;;7.50;47.90;;;;;;5054709;28;20028;-74
2021/04/26 00:22:07;;;;;;;2.88;1.30;;;7.50;47.90;;;;;;5066371;28;20021;-74
2021/04/26 00:24:33;;;;;;;8.13;1.20;;;7.40;48.00;;;;;;5074200;28;20020;-74
2021/04/26 00:26:59;;;;;;;2.63;1.00;;;7.40;47.50;;;;;;5071594;28;20123;-74
2021/04/26 00:29:25;;;;;;;3.53;1.00;;;7.40;47.40;;;;;;5042474;28;20024;-74
2021/04/26 00:31:50;;;;;;;1.92;1.08;;;7.40;47.10;;;;;;5047784;28;20102;-74
2021/04/26 00:34:16;;;;;;;2.35;1.00;;;7.40;47.10;;;;;;5081380;28;20028;-74
2021/04/26 00:36:41;;;;;;;2.22;1.10;;;7.30;46.90;;;;;;5071838;28;20036;-72
2021/04/26 00:39:07;;;;;;;3.03;1.20;;;7.40;46.90;;;;;;5072166;28;20085;-71
2021/04/26 00:41:32;;;;;;;4.03;1.30;;;7.40;46.70;;;;;;5059747;28;20036;-71
2021/04/26 00:43:58;;;;;;;2.58;1.30;;;7.30;46.50;;;;;;5078625;28;20032;-72
2021/04/26 00:46:23;;;;;;;1.98;0.88;;;7.30;46.50;;;;;;5073374;28;20033;-72
2021/04/26 00:48:49;;;;;;;1.75;1.00;;;7.30;46.40;;;;;;5071745;28;20044;-73
2021/04/26 00:51:14;;;;;;;1.58;0.80;;;7.30;46.40;;;;;;5074111;28;20107;-72
2021/04/26 00:53:40;;;;;;;1.60;1.00;;;7.30;46.30;;;;;;5070077;28;20046;-71
2021/04/26 00:56:06;;;;;;;1.73;0.80;;;7.30;46.30;;;;;;5073851;28;20026;-71
2021/04/26 00:58:32;;;;;;;2.35;1.00;;;7.30;46.30;;;;;;5073727;28;20127;-71
2021/04/26 01:00:58;;;;;;;2.90;1.20;;;7.30;46.40;;;;;;5072720;28;20640;-73
2021/04/26 01:03:23;;;;;;;2.28;1.00;;;7.30;46.40;;;;;;5071734;28;20040;-74
2021/04/26 01:05:49;;;;;;;3.33;1.13;;;7.20;46.40;;;;;;5073183;28;20037;-74
2021/04/26 01:08:14;;;;;;;1.52;1.00;;;7.10;46.40;;;;;;5070820;28;20112;-74
2021/04/26 01:10:40;;;;;;;1.80;1.08;;;7.20;46.40;;;;;;5073196;28;20032;-74
2021/04/26 01:13:22;;;;;;;2.90;1.50;;;7.10;46.30;;;;;;5070794;28;20477;-72
2021/04/26 01:15:58;;;;;;;2.90;1.00;;;7.20;46.40;;;;;;5073574;28;20035;-71
2021/04/26 01:18:45;;;;;;;4.72;1.00;;;7.10;46.40;;;;;;5071635;28;20376;-72
2021/04/26 01:21:46;;;;;;;4.28;1.23;;;7.10;46.50;;;;;;5073246;28;20174;-72
2021/04/26 01:24:38;;;;;;;6.82;1.35;;;7.00;46.40;;;;;;5069994;28;20020;-73
2021/04/26 01:27:34;;;;;;;1.70;0.98;;;6.90;46.40;;;;;;5071579;28;20041;-72
2021/04/26 01:30:10;;;;;;;2.85;1.10;;;6.80;46.50;;;;;;5072647;28;20029;-72
2021/04/26 01:32:57;;;;;;;3.65;1.25;;;6.80;46.60;;;;;;5077290;28;20034;-72
2021/04/26 01:35:24;;;;;;;1.50;0.95;;;6.80;46.60;;;;;;5083976;28;20494;-72
2021/04/26 01:37:54;;;;;;;1.98;1.08;;;6.80;46.90;;;;;;5072331;28;20028;-71
2021/04/26 01:40:20;;;;;;;1.48;0.93;;;6.80;46.90;;;;;;5072058;28;20028;-71
2021/04/26 01:42:50;;;;;;;2.42;1.10;;;6.80;46.80;;;;;;5066559;28;20024;-71
2021/04/26 01:45:17;;;;;;;2.13;1.00;;;6.80;46.90;;;;;;5062887;28;20057;-72
2021/04/26 01:47:45;;;;;;;2.45;1.00;;;6.80;47.00;;;;;;5052650;28;20025;-71
2021/04/26 01:50:12;;;;;;;1.90;1.00;;;6.70;47.00;;;;;;5067526;28;20119;-71
2021/04/26 01:52:38;;;;;;;1.63;1.20;;;6.60;47.40;;;;;;5052423;28;20036;-70
2021/04/26 01:55:06;;;;;;;2.08;0.90;;;6.60;47.80;;;;;;5069029;28;20052;-74
2021/04/26 01:57:32;;;;;;;2.47;1.23;;;6.50;47.60;;;;;;5059561;28;20409;-75
2021/04/26 02:00:01;;;;;;;3.90;0.95;;;6.60;47.60;;;;;;5071818;28;20048;-75
2021/04/26 02:02:28;;;;;;;3.20;1.20;;;6.60;47.70;;;;;;5072643;28;20059;-75
2021/04/26 02:04:56;;;;;;;2.33;1.20;;;6.50;47.90;;;;;;5072797;28;20043;-76
2021/04/26 02:07:23;;;;;;;2.65;1.20;;;6.50;48.00;;;;;;5054921;28;20052;-73
2021/04/26 02:09:50;;;;;;;3.67;0.90;;;6.40;48.10;;;;;;5059832;28;20037;-74
2021/04/26 02:12:16;;;;;;;3.08;1.30;;;6.40;48.40;;;;;;5066299;28;20029;-74
2021/04/26 02:14:42;;;;;;;2.28;1.02;;;6.40;48.40;;;;;;5073881;28;20519;-74
2021/04/26 02:17:08;;;;;;;2.30;1.20;;;6.40;48.30;;;;;;5055859;28;20051;-75
2021/04/26 02:19:34;;;;;;;3.13;1.10;;;6.40;48.40;;;;;;5047614;28;20029;-74
2021/04/26 02:22:00;;;;;;;3.17;1.60;;;6.40;48.30;;;;;;5054618;28;20440;-74
2021/04/26 02:24:26;;;;;;;1.65;1.00;;;6.40;48.50;;;;;;5065979;28;20028;-75
2021/04/26 02:26:52;;;;;;;2.38;1.10;;;6.40;48.40;;;;;;5070702;28;20037;-75
2021/04/26 02:29:18;;;;;;;1.83;1.00;;;6.40;48.50;;;;;;5063242;28;20470;-74
2021/04/26 02:31:48;;;;;;;4.47;2.03;;;6.40;48.60;;;;;;5072272;28;20428;-74
2021/04/26 02:34:27;;;;;;;5.18;1.55;;;6.40;48.60;;;;;;5063120;28;20020;-74
2021/04/26 02:37:02;;;;;;;4.20;2.17;;;6.40;48.90;;;;;;5072068;28;20039;-74
2021/04/26 02:39:29;;;;;;;3.78;1.10;;;6.30;49.00;;;;;;5058459;28;20037;-74
2021/04/26 02:41:55;;;;;;;3.53;1.30;;;6.30;49.00;;;;;;5052808;28;20036;-73
2021/04/26 02:44:27;;;;;;;4.65;1.60;;;6.30;49.10;;;;;;5042616;28;20056;-73
2021/04/26 02:47:01;;;;;;;5.00;1.27;;;6.40;49.20;;;;;;5063845;28;20026;-73
2021/04/26 02:49:28;;;;;;;2.80;1.30;;;6.40;49.40;;;;;;5066794;28;20040;-73
2021/04/26 02:51:54;;;;;;;3.35;1.25;;;6.30;49.30;;;;;;5072176;28;20116;-74
2021/04/26 02:54:21;;;;;;;2.70;1.13;;;6.30;49.40;;;;;;5070161;28;20100;-74
2021/04/26 02:56:49;;;;;;;2.15;1.20;;;6.30;49.50;;;;;;5071367;28;20032;-74
2021/04/26 02:59:19;;;;;;;5.75;1.33;;;6.30;49.60;;;;;;5070176;28;20060;-74
2021/04/26 03:01:45;;;;;;;5.00;1.38;;;6.30;50.10;;;;;;5069227;28;20035;-74
2021/04/26 03:04:12;;;;;;;2.63;1.10;;;6.20;50.40;;;;;;5065111;28;20040;-73
2021/04/26 03:06:37;;;;;;;2.97;1.20;;;6.20;50.10;;;;;;5071801;28;20040;-74
2021/04/26 03:09:03;;;;;;;2.00;1.40;;;6.20;49.90;;;;;;5071890;28;20706;-75
2021/04/26 03:11:29;;;;;;;2.20;1.50;;;6.20;50.10;;;;;;5071017;28;20031;-75
2021/04/26 03:13:55;;;;;;;2.38;1.23;;;6.20;50.20;;;;;;5051499;28;20029;-75
2021/04/26 03:16:21;;;;;;;2.80;1.45;;;6.20;50.40;;;;;;5053324;28;20024;-75
2021/04/26 03:18:47;;;;;;;3.92;1.10;;;6.20;50.40;;;;;;5074342;28;20030;-75
2021/04/26 03:21:14;;;;;;;1.98;1.10;;;6.10;50.40;;;;;;5071663;28;20062;-75
2021/04/26 03:23:42;;;;;;;2.90;1.23;;;6.20;50.60;;;;;;5071855;28;20016;-74
2021/04/26 03:26:08;;;;;;;4.65;1.45;;;6.20;50.70;;;;;;5074979;28;20082;-74
2021/04/26 03:28:37;;;;;;;4.30;1.58;;;6.10;50.70;;;;;;5066625;28;20020;-74
2021/04/26 03:31:03;;;;;;;2.00;1.25;;;6.10;50.80;;;;;;5075114;28;20121;-73
2021/04/26 03:33:33;;;;;;;2.05;1.10;;;6.00;50.80;;;;;;5077774;28;20145;-74
2021/04/26 03:35:58;;;;;;;3.63;1.23;;;6.00;51.20;;;;;;5076352;28;20500;-74
2021/04/26 03:38:25;;;;;;;2.88;1.25;;;5.80;51.20;;;;;;5079403;28;20016;-75
2021/04/26 03:40:50;;;;;;;1.77;1.05;;;5.80;51.60;;;;;;5076704;28;20032;-75
2021/04/26 03:43:17;;;;;;;1.25;0.90;;;5.80;51.50;;;;;;5073720;28;20036;-75
2021/04/26 03:45:43;;;;;;;3.15;1.23;;;5.80;51.80;;;;;;5074733;28;20047;-74
2021/04/26 03:48:09;;;;;;;2.70;1.30;;;5.80;51.60;;;;;;5073979;28;20025;-73
2021/04/26 03:50:35;;;;;;;1.25;1.10;;;5.80;52.20;;;;;;5073893;28;20415;-73
2021/04/26 03:53:00;;;;;;;2.85;1.25;;;5.90;52.00;;;;;;5087160;28;20150;-74
2021/04/26 03:55:26;;;;;;;2.55;1.23;;;5.80;52.20;;;;;;5086775;28;20561;-73
2021/04/26 03:57:52;;;;;;;2.88;1.20;;;5.70;52.10;;;;;;5057004;28;20035;-74
2021/04/26 04:00:20;;;;;;;1.50;0.95;;;5.70;52.20;;;;;;5069965;28;20040;-75
2021/04/26 04:02:46;;;;;;;3.83;1.17;;;5.70;52.30;;;;;;5055477;28;20041;-74
2021/04/26 04:05:13;;;;;;;1.83;1.30;;;5.70;52.30;;;;;;5071741;28;20151;-75
2021/04/26 04:07:39;;;;;;;6.22;1.80;;;5.70;52.30;;;;;;5092637;28;20058;-74
2021/04/26 04:10:06;;;;;;;2.17;1.20;;;5.70;52.40;;;;;;5078136;28;20029;-74
2021/04/26 04:12:33;;;;;;;3.67;1.42;;;5.70;52.60;;;;;;5082405;28;20043;-73
2021/04/26 04:14:59;;;;;;;2.90;1.17;;;5.60;52.90;;;;;;5075816;28;20094;-74
2021/04/26 04:17:25;;;;;;;3.80;1.40;;;5.60;52.90;;;;;;5069592;28;20097;-75
2021/04/26 04:19:50;;;;;;;2.90;1.17;;;5.70;53.00;;;;;;5073077;28;20647;-74
2021/04/26 04:22:16;;;;;;;3.53;1.20;;;5.70;53.20;;;;;;5074739;28;20032;-74
2021/04/26 04:24:41;;;;;;;5.30;1.38;;;5.70;53.30;;;;;;5077158;28;20461;-74
2021/04/26 04:27:07;;;;;;;4.68;1.50;;;5.70;53.30;;;;;;5073683;28;20039;-74
2021/04/26 04:29:32;;;;;;;2.53;1.40;;;5.70;53.40;;;;;;5072862;28;20016;-73
2021/04/26 04:31:58;;;;;;;3.72;1.33;;;5.60;53.40;;;;;;5074529;28;20501;-74
2021/04/26 04:34:23;;;;;;;1.98;1.15;;;5.60;53.50;;;;;;5046483;28;20033;-75
2021/04/26 04:36:49;;;;;;;5.38;1.67;;;5.70;53.60;;;;;;5069187;28;20036;-75
2021/04/26 04:39:14;;;;;;;5.18;1.83;;;5.70;53.80;;;;;;5073299;28;20039;-75
2021/04/26 04:41:40;;;;;;;7.85;1.42;;;5.70;53.90;;;;;;5074911;28;20028;-76
2021/04/26 04:44:06;;;;;;;4.18;1.40;;;5.70;53.80;;;;;;5082537;28;20036;-75
2021/04/26 04:46:31;;;;;;;2.63;1.40;;;5.80;53.80;;;;;;5082059;28;20037;-75
2021/04/26 04:48:57;;;;;;;3.33;1.40;;;5.90;53.80;;;;;;5071649;28;20021;-75
2021/04/26 04:51:23;;;;;;;3.33;1.60;;;5.90;53.90;;;;;;5074275;28;20016;-75
2021/04/26 04:53:49;;;;;;;3.47;1.20;;;5.80;53.90;;;;;;5071324;28;20025;-77
2021/04/26 04:56:14;;;;;;;3.45;1.27;;;5.80;54.50;;;;;;5074158;28;20472;-76
2021/04/26 04:58:40;;;;;;;7.53;1.73;;;5.90;54.10;;;;;;5071256;28;20041;-76
2021/04/26 05:01:05;;;;;;;3.40;1.45;;;5.90;54.10;;;;;;5074607;28;20029;-77
2021/04/26 05:03:31;;;;;;;3.25;1.02;;;5.90;54.00;;;;;;5077158;28;20054;-76
2021/04/26 05:05:57;;;;;;;2.50;1.13;;;5.80;54.00;;;;;;5080212;28;20032;-76
2021/04/26 05:08:22;;;;;;;4.10;1.90;;;5.90;54.20;;;;;;5072075;28;20024;-77
2021/04/26 05:10:48;;;;;;;3.75;1.50;;;5.90;54.70;;;;;;5078428;28;20029;-77
2021/04/26 05:13:13;;;;;;;4.07;1.50;;;5.90;54.60;;;;;;5075832;28;20063;-77
2021/04/26 05:15:40;;;;;;;2.88;1.33;;;6.00;54.30;;;;;;5089238;28;20039;-77
2021/04/26 05:18:07;;;;;;;3.92;1.25;;;6.00;54.20;;;;;;5076120;28;20024;-77
2021/04/26 05:20:32;;;;;;;5.13;1.70;;;6.00;54.40;;;;;;5058375;28;20039;-77
2021/04/26 05:22:58;;;;;;;4.25;1.95;;;6.10;54.10;;;;;;5074931;28;20428;-76
2021/04/26 05:25:24;;;;;;;3.35;1.60;;;6.10;54.00;;;;;;5087704;28;20498;-76
2021/04/26 05:27:49;;;;;;;6.25;1.58;;;6.10;54.20;;;;;;5088779;28;20028;-76
2021/04/26 05:30:15;;;;;;;2.80;1.50;;;6.20;54.10;;;;;;5079201;28;20017;-76
2021/04/26 05:32:40;;;;;;;6.05;1.77;;;6.20;54.00;;;;;;5072537;28;20067;-77
2021/04/26 05:35:07;;;;;;;5.43;1.52;;;6.10;53.80;;;;;;5074533;28;20376;-75
2021/04/26 05:37:32;;;;;;;8.07;1.80;;;6.20;54.00;;;;;;5070089;28;20033;-74
2021/04/26 05:39:58;;;;;;;5.45;1.63;;;6.20;54.10;;;;;;5073161;28;20035;-72
2021/04/26 05:42:23;;;;;;;3.08;1.40;;;6.20;54.20;;;;;;5071580;28;20219;-72
2021/04/26 05:44:49;;;;;;;3.90;1.80;;;6.20;54.00;;;;;;5073503;28;20025;-73
2021/04/26 05:47:15;;;;;;;5.28;1.50;;;6.30;54.00;;;;;;5054367;28;20077;-72
2021/04/26 05:49:41;;;;;;;3.33;1.85;;;6.30;53.90;;;;;;5064486;28;20059;-72
2021/04/26 05:52:06;;;;;;;3.50;1.48;;;6.40;53.90;;;;;;5070114;28;20085;-72
2021/04/26 05:54:32;;;;;;;5.38;1.90;;;6.50;54.10;;;;;;5072722;28;20044;-74
2021/04/26 05:56:57;;;;;;;6.32;1.60;;;6.40;54.30;;;;;;5076922;28;20037;-73
2021/04/26 05:59:23;;;;;;;4.85;1.90;;;6.50;54.40;;;;;;5072518;28;20159;-74
2021/04/26 06:01:48;;;;;;;8.35;1.98;;;6.50;54.20;;;;;;5068593;28;20377;-74
2021/04/26 06:04:14;;;;;;;4.10;1.52;;;6.60;54.40;;;;;;5073026;28;20031;-74
2021/04/26 06:06:40;;;;;;;4.68;1.50;;;6.60;54.30;;;;;;5053423;28;20047;-73
2021/04/26 06:09:05;;;;;;;3.88;1.20;;;6.50;54.20;;;;;;5071694;28;20111;-73
2021/04/26 06:11:31;;;;;;;2.50;1.20;;;6.60;54.30;;;;;;5078587;28;20047;-74
2021/04/26 06:13:56;;;;;;;4.65;1.50;;;6.60;54.50;;;;;;5072078;28;20062;-73
2021/04/26 06:16:22;;;;;;;4.10;1.65;;;6.70;55.00;;;;;;5069268;28;20031;-72
2021/04/26 06:18:47;;;;;;;2.67;1.40;;;6.60;54.90;;;;;;5091109;28;20499;-74
2021/04/26 06:21:13;;;;;;;3.92;1.33;;;6.70;54.80;;;;;;5071760;28;20074;-74
2021/04/26 06:23:38;;;;;;;3.00;1.35;;;6.70;54.80;;;;;;5076443;28;20508;-73
2021/04/26 06:26:04;;;;;;;6.82;1.65;;;6.80;55.10;;;;;;5070306;28;20033;-73
2021/04/26 06:28:29;;;;;;;4.47;1.30;;;6.80;55.50;;;;;;5087777;28;20020;-73
2021/04/26 06:30:55;;;;;;;4.57;1.65;;;6.80;55.10;;;;;;5070553;28;20505;-73
2021/04/26 06:33:20;;;;;;;2.63;1.30;;;6.90;55.40;;;;;;5070993;28;20029;-73
2021/04/26 06:35:49;;;;;;;4.07;1.30;;;6.90;55.10;;;;;;5071020;28;20024;-73
2021/04/26 06:38:14;;;;;;;6.97;1.88;;;7.00;55.10;;;;;;5071019;28;20028;-70
2021/04/26 06:40:40;;;;;;;2.47;1.30;;;7.00;55.00;;;;;;5071264;28;20032;-72
2021/04/26 06:43:06;;;;;;;6.28;1.85;;;7.00;54.90;;;;;;5068422;28;20028;-72
2021/04/26 06:45:33;;;;;;;7.18;1.60;;;7.10;54.90;;;;;;5069639;28;20504;-72
2021/04/26 06:47:58;;;;;;;3.72;1.17;;;7.20;54.90;;;;;;5071186;28;20033;-71
2021/04/26 06:50:24;;;;;;;3.05;1.40;;;7.30;55.20;;;;;;5070579;28;20036;-72
2021/04/26 06:52:54;;;;;;;2.20;1.33;;;7.30;55.00;;;;;;5076565;28;20021;-72
2021/04/26 06:55:20;;;;;;;4.30;1.63;;;7.40;54.80;;;;;;5070355;28;20357;-72
2021/04/26 06:57:45;;;;;;;3.15;1.33;;;7.40;54.60;;;;;;5069886;28;20039;-72
2021/04/26 07:00:12;;;;;;;7.68;1.80;;;7.50;54.40;;;;;;5063837;28;20088;-69
2021/04/26 07:02:38;;;;;;;3.72;1.30;;;7.60;54.30;;;;;;5077546;28;20031;-71
2021/04/26 07:05:04;;;;;;;3.78;1.40;;;7.60;53.90;;;;;;5062784;28;20036;-70
2021/04/26 07:07:29;;;;;;;2.03;1.42;;;7.70;54.00;;;;;;5051653;28;20040;-70
2021/04/26 07:09:55;;;;;;;5.18;1.40;;;7.70;53.60;;;;;;5069163;28;20017;-69
2021/04/26 07:12:21;;;;;;;4.05;1.20;;;7.80;53.00;;;;;;5070264;28;20102;-70
2021/04/26 07:14:47;;;;;;;2.50;1.55;;;7.80;52.90;;;;;;5071469;28;20033;-70
2021/04/26 07:17:12;;;;;;;3.80;1.40;;;7.80;51.90;;;;;;5067908;28;20028;-70
2021/04/26 07:19:38;;;;;;;2.78;1.05;;;7.80;51.80;;;;;;5071119;28;20430;-69
2021/04/26 07:22:03;;;;;;;2.25;1.00;;;7.80;51.70;;;;;;5068583;28;20039;-69
2021/04/26 07:24:29;;;;;;;3.90;1.15;;;7.90;51.10;;;;;;5061172;28;20089;-69
2021/04/26 07:26:55;;;;;;;2.35;1.40;;;7.90;51.20;;;;;;5051782;28;20105;-69
2021/04/26 07:29:20;;;;;;;2.22;1.05;;;7.90;50.80;;;;;;5066045;28;20416;-70
2021/04/26 07:31:46;;;;;;;2.28;1.10;;;8.00;50.70;;;;;;5068165;28;20033;-69
2021/04/26 07:34:11;;;;;;;2.35;1.30;;;8.00;50.60;;;;;;5071131;28;20027;-70
2021/04/26 07:36:37;;;;;;;1.80;1.05;;;8.10;50.30;;;;;;5069110;28;20100;-70
2021/04/26 07:39:04;;;;;;;4.13;1.33;;;8.10;50.30;;;;;;5069898;28;20032;-72
2021/04/26 07:41:30;;;;;;;1.92;1.13;;;8.20;49.80;;;;;;5071583;28;20024;-72
2021/04/26 07:43:55;;;;;;;5.25;1.30;;;8.10;49.50;;;;;;5075927;28;20694;-68
2021/04/26 07:46:21;;;;;;;3.22;1.35;;;8.10;48.60;;;;;;5069733;28;20660;-68
2021/04/26 07:48:46;;;;;;;4.38;1.50;;;8.10;49.50;;;;;;5066149;28;20096;-69
2021/04/26 07:51:12;;;;;;;1.73;1.10;;;8.20;49.10;;;;;;5062866;28;20086;-68
2021/04/26 07:53:37;;;;;;;3.30;1.20;;;8.10;48.70;;;;;;5070446;28;20043;-68
2021/04/26 07:56:03;;;;;;;5.93;1.60;;;8.10;48.70;;;;;;5069708;28;20086;-68
2021/04/26 07:58:29;;;;;;;2.83;1.05;;;8.20;48.70;;;;;;5064623;28;20036;-67
2021/04/26 08:00:54;;;;;;;3.28;1.23;;;8.20;48.90;;;;;;5054835;28;20024;-69
2021/04/26 08:03:20;;;;;;;2.63;1.20;;;8.30;48.70;;;;;;5056419;28;20043;-69
2021/04/26 08:05:46;;;;;;;2.38;1.08;;;8.30;48.00;;;;;;5067789;28;20048;-69
2021/04/26 08:08:11;;;;;;;3.63;1.20;;;8.40;48.00;;;;;;5055813;28;20104;-69
2021/04/26 08:10:37;;;;;;;1.63;1.10;;;8.40;47.20;;;;;;5060802;28;20031;-69
2021/04/26 08:13:03;;;;;;;3.47;1.30;;;8.30;47.20;;;;;;5073498;28;20427;-69
2021/04/26 08:15:29;;;;;;;2.30;0.90;;;8.30;46.60;;;;;;5064116;28;20126;-70
2021/04/26 08:17:54;;;;;;;3.05;1.17;;;8.30;46.50;;;;;;5074235;28;20036;-68
2021/04/26 08:20:20;;;;;;;2.30;1.10;;;8.30;46.90;;;;;;5071201;28;20032;-68
2021/04/26 08:22:46;;;;;;;3.33;1.42;;;8.40;47.00;;;;;;5063421;28;20492;-69
2021/04/26 08:25:11;;;;;;;2.15;1.13;;;8.50;47.00;;;;;;5051700;28;20072;-68
2021/04/26 08:27:38;;;;;;;1.90;1.00;;;8.60;47.10;;;;;;5066091;28;20378;-68
2021/04/26 08:30:05;;;;;;;2.83;1.20;;;8.70;46.00;;;;;;5063114;28;20381;-70
2021/04/26 08:32:31;;;;;;;3.25;1.00;;;8.60;45.80;;;;;;5050550;28;20489;-68
2021/04/26 08:34:57;;;;;;;2.05;1.10;;;8.70;45.90;;;;;;5070618;28;20074;-68
2021/04/26 08:37:22;;;;;;;3.97;1.05;;;8.70;45.60;;;;;;5069787;28;20028;-68
2021/04/26 08:39:48;;;;;;;2.08;1.10;;;8.90;46.00;;;;;;5071344;28;20126;-68
2021/04/26 08:42:18;;;;;;;1.95;1.20;;;8.90;44.60;;;;;;5070967;28;20388;-69
2021/04/26 08:44:44;;;;;;;2.22;1.10;;;9.00;45.20;;;;;;5060528;28;20033;-70
2021/04/26 08:47:10;;;;;;;1.48;0.95;;;9.00;44.90;;;;;;5072980;28;20534;-68
2021/04/26 08:49:36;;;;;;;3.38;1.45;;;9.10;44.60;;;;;;5073847;28;20043;-69
2021/04/26 08:52:02;;;;;;;2.33;1.23;;;9.10;43.70;;;;;;5072718;28;20028;-68
2021/04/26 08:54:28;;;;;;;2.47;1.10;;;9.20;43.90;;;;;;5072282;28;20044;-69
2021/04/26 08:56:53;;;;;;;3.58;1.10;;;9.20;43.00;;;;;;5079692;28;20054;-68
2021/04/26 08:59:19;;;;;;;1.45;1.08;;;9.30;43.70;;;;;;5083297;28;20040;-69
2021/04/26 09:01:46;;;;;;;2.00;0.85;;;9.30;41.80;;;;;;5064554;28;20016;-69
2021/04/26 09:04:13;;;;;;;3.05;1.00;;;9.40;42.50;;;;;;5045583;28;20419;-69
2021/04/26 09:06:59;;;;;;;4.07;1.23;;;9.40;42.40;;;;;;5052080;28;20029;-69
2021/04/26 09:09:42;;;;;;;1.65;0.90;;;9.50;41.10;;;;;;5045261;28;20029;-69
2021/04/26 09:12:11;;;;;;;2.58;0.85;;;9.40;40.90;;;;;;5044052;28;20029;-68
2021/04/26 09:14:45;;;;;;;1.95;0.88;;;9.40;41.00;;;;;;5072460;28;20032;-69
2021/04/26 09:17:30;;;;;;;7.10;1.57;;;9.50;42.10;;;;;;5079575;28;20032;-68
2021/04/26 09:19:59;;;;;;;4.97;1.02;;;9.70;41.30;;;;;;5071566;28;20032;-68
2021/04/26 09:22:59;;;;;;;2.75;0.80;;;9.90;41.00;;;;;;5066483;28;20433;-71
2021/04/26 09:25:36;;;;;;;3.78;1.50;;;10.10;41.50;;;;;;5045940;28;20059;-68
2021/04/26 09:28:11;;;;;;;4.88;1.00;;;10.30;39.70;;;;;;5070135;28;20037;-67
2021/04/26 09:30:42;;;;;;;2.00;1.02;;;10.20;39.20;;;;;;5065052;28;20047;-67
2021/04/26 09:33:17;;;;;;;3.15;1.00;;;10.20;39.90;;;;;;5078590;28;20028;-67
2021/04/26 09:35:43;;;;;;;4.22;1.10;;;10.30;39.70;;;;;;5069564;28;20040;-67
2021/04/26 09:38:33;;;;;;;2.58;1.05;;;10.40;38.60;;;;;;5072234;28;20111;-67
2021/04/26 09:41:07;;;;;;;3.28;1.10;;;10.40;38.50;;;;;;5071933;28;20150;-67
2021/04/26 09:43:33;;;;;;;2.60;1.10;;;10.50;38.80;;;;;;5072527;28;20017;-66
2021/04/26 09:45:58;;;;;;;2.03;0.93;;;10.50;39.10;;;;;;5049056;28;20059;-67
2021/04/26 09:48:27;;;;;;;4.50;0.98;;;10.50;40.00;;;;;;5061044;28;20017;-67
2021/04/26 09:51:07;;;;;;;1.40;1.05;;;10.70;40.70;;;;;;5072135;28;20062;-67
2021/04/26 09:53:39;;;;;;;3.58;1.30;;;10.80;39.90;;;;;;5043363;28;20447;-67
2021/04/26 09:56:19;;;;;;;5.53;1.20;;;10.80;40.10;;;;;;5071714;28;20029;-67
2021/04/26 09:58:47;;;;;;;3.08;1.23;;;10.90;40.40;;;;;;5072438;28;20060;-67
2021/04/26 10:01:13;;;;;;;4.25;1.20;;;11.00;40.50;;;;;;5071529;28;20104;-67
2021/04/26 10:03:39;;;;;;;1.95;0.85;;;11.20;40.60;;;;;;5058548;28;20033;-67
2021/04/26 10:06:05;;;;;;;5.93;1.15;;;11.20;39.80;;;;;;5053674;28;20032;-67
2021/04/26 10:08:31;;;;;;;4.38;1.40;;;11.40;40.10;;;;;;5072298;28;20024;-66
2021/04/26 10:10:57;;;;;;;2.67;1.00;;;11.40;39.30;;;;;;5070891;28;20028;-67
2021/04/26 10:13:24;;;;;;;1.52;0.85;;;11.40;38.90;;;;;;5072318;28;20056;-67
2021/04/26 10:15:56;;;;;;;3.22;1.20;;;11.40;39.00;;;;;;5070761;28;21681;-66
2021/04/26 10:18:27;;;;;;;3.60;1.45;;;11.40;39.00;;;;;;5072349;28;20115;-66
2021/04/26 10:20:53;;;;;;;1.85;1.02;;;11.50;39.10;;;;;;5052699;28;20423;-66
2021/04/26 10:23:35;;;;;;;1.92;0.90;;;11.50;38.60;;;;;;5072026;28;20158;-67
2021/04/26 10:26:00;;;;;;;0.85;0.70;;;11.60;39.10;;;;;;5071366;28;20055;-66
2021/04/26 10:28:30;;;;;;;3.63;1.25;;;11.80;39.50;;;;;;5070594;28;20021;-66
2021/04/26 10:30:58;;;;;;;2.30;1.10;;;12.00;39.10;;;;;;5070039;28;20109;-67
2021/04/26 10:33:23;;;;;;;1.77;1.00;;;12.10;37.60;;;;;;5068407;28;20032;-67
2021/04/26 10:35:51;;;;;;;2.60;0.80;;;11.90;37.20;;;;;;5061067;28;20021;-66
2021/04/26 10:38:35;;;;;;;1.30;0.98;;;11.70;37.20;;;;;;5051808;28;20021;-66
2021/04/26 10:41:06;;;;;;;4.00;1.10;;;11.60;36.80;;;;;;5059804;28;20040;-67
2021/04/26 10:43:32;;;;;;;3.83;1.13;;;11.50;37.40;;;;;;5052048;28;20029;-67
2021/04/26 10:46:16;;;;;;;2.45;1.00;;;11.50;37.90;;;;;;5049545;28;20574;-67
2021/04/26 10:49:03;;;;;;;3.35;1.65;;;11.60;38.10;;;;;;5070989;28;20515;-68
2021/04/26 10:51:30;;;;;;;2.50;1.00;;;11.60;37.70;;;;;;5071636;28;20024;-67
2021/04/26 10:53:56;;;;;;;3.67;1.73;;;11.60;38.10;;;;;;5066476;28;20481;-67
2021/04/26 10:56:29;;;;;;;3.78;1.10;;;11.50;38.20;;;;;;5067272;28;20074;-67
2021/04/26 10:59:13;;;;;;;3.33;1.40;;;11.50;38.30;;;;;;5065236;28;20041;-67
2021/04/26 11:01:49;;;;;;;5.30;1.30;;;11.50;38.30;;;;;;5066410;28;20025;-67
2021/04/26 11:04:15;;;;;;;2.47;1.33;;;11.50;38.30;;;;;;5064856;28;20385;-67
2021/04/26 11:06:59;;;;;;;2.42;1.10;;;11.50;38.20;;;;;;5062422;28;20037;-67
2021/04/26 11:09:38;;;;;;;2.55;1.10;;;11.60;38.50;;;;;;5066605;28;20038;-67
2021/04/26 11:12:31;;;;;;;2.63;1.13;;;11.50;38.00;;;;;;5068668;28;20055;-67
2021/04/26 11:15:17;;;;;;;3.90;1.17;;;11.40;38.00;;;;;;5071903;28;20427;-66
2021/04/26 11:17:44;;;;;;;5.72;1.35;;;11.20;38.30;;;;;;5051404;28;20033;-66
2021/04/26 11:20:15;;;;;;;6.10;1.55;;;11.20;38.90;;;;;;5068787;28;20078;-66
2021/04/26 11:22:42;;;;;;;2.83;0.90;;;11.40;39.10;;;;;;5053351;28;20393;-67
2021/04/26 11:25:10;;;;;;;4.53;1.10;;;11.50;38.90;;;;;;5058464;28;20033;-67
2021/04/26 11:27:37;;;;;;;3.17;1.25;;;11.70;39.30;;;;;;5051238;28;20041;-67
2021/04/26 11:30:03;;;;;;;1.95;1.00;;;11.90;38.90;;;;;;5050254;28;20075;-67
2021/04/26 11:32:28;;;;;;;3.22;1.10;;;12.10;39.60;;;;;;5068845;28;20028;-67
2021/04/26 11:34:56;;;;;;;8.60;1.80;;;12.30;39.30;;;;;;5069754;28;20134;-67
2021/04/26 11:37:28;;;;;;;3.78;1.33;;;12.50;37.60;;;;;;5070543;28;20045;-67
2021/04/26 11:39:55;;;;;;;2.17;1.10;;;12.60;37.90;;;;;;5070326;28;20035;-67
2021/04/26 11:42:27;;;;;;;2.17;1.10;;;12.70;37.70;;;;;;5036568;28;20029;-65
2021/04/26 11:44:53;;;;;;;2.10;1.05;;;12.80;37.10;;;;;;5072804;28;20087;-67
2021/04/26 11:47:20;;;;;;;4.40;1.10;;;12.60;36.00;;;;;;5070623;28;20032;-67
2021/04/26 11:49:51;;;;;;;2.97;1.05;;;12.40;36.80;;;;;;5072649;28;20016;-66
2021/04/26 11:52:24;;;;;;;4.75;1.70;;;12.30;36.70;;;;;;5073596;28;20028;-67
2021/04/26 11:55:07;;;;;;;3.65;1.33;;;12.10;36.80;;;;;;5075183;28;20434;-66
2021/04/26 11:57:50;;;;;;;6.07;1.30;;;12.00;37.20;;;;;;5067114;28;20071;-67
2021/04/26 12:00:18;;;;;;;2.63;1.17;;;11.80;37.40;;;;;;5073478;28;20090;-66
2021/04/26 12:02:49;;;;;;;1.83;1.30;;;11.70;37.40;;;;;;5073028;28;20025;-67
2021/04/26 12:05:21;;;;;;;3.30;1.27;;;11.60;37.50;;;;;;5071751;28;20048;-67
2021/04/26 12:07:47;;;;;;;4.00;1.30;;;11.60;37.80;;;;;;5054933;28;20033;-67
2021/04/26 12:10:15;;;;;;;3.45;1.45;;;11.70;37.50;;;;;;5066230;28;20087;-67
2021/04/26 12:12:42;;;;;;;4.10;1.02;;;11.70;37.80;;;;;;5074456;28;20094;-65
2021/04/26 12:15:10;;;;;;;3.08;1.10;;;11.80;38.00;;;;;;5060924;28;20040;-67
2021/04/26 12:17:41;;;;;;;4.72;1.38;;;11.90;37.80;;;;;;5054735;28;20115;-65
2021/04/26 12:20:25;;;;;;;1.98;0.98;;;11.90;37.40;;;;;;5064641;28;20031;-67
2021/04/26 12:22:53;;;;;;;1.20;0.80;;;11.90;35.60;;;;;;5074146;28;20037;-68
2021/04/26 12:25:22;;;;;;;3.03;1.13;;;11.90;36.50;;;;;;5074591;28;20040;-68
2021/04/26 12:27:57;;;;;;;4.03;1.15;;;11.90;35.40;;;;;;5077802;28;20115;-67
2021/04/26 12:30:24;;;;;;;3.28;1.13;;;11.90;35.60;;;;;;5080295;28;20028;-67
2021/04/26 12:32:50;;;;;;;1.98;0.95;;;11.90;35.70;;;;;;5083121;28;20035;-67
2021/04/26 12:35:19;;;;;;;3.55;1.30;;;12.00;35.80;;;;;;5071667;28;20028;-67
2021/04/26 12:37:50;;;;;;;2.05;1.10;;;12.00;35.30;;;;;;5068550;28;20040;-67
2021/04/26 12:40:33;;;;;;;2.10;1.10;;;12.00;35.30;;;;;;5037730;28;20017;-68
2021/04/26 12:42:58;;;;;;;1.77;1.08;;;12.10;35.70;;;;;;5076095;28;20029;-67
2021/04/26 12:45:29;;;;;;;1.83;0.77;;;12.20;35.70;;;;;;5066490;28;20039;-67
2021/04/26 12:48:15;;;;;;;3.53;1.02;;;12.20;35.50;;;;;;5068484;28;20107;-68
2021/04/26 12:50:43;;;;;;;3.58;1.20;;;12.30;35.20;;;;;;5072977;28;20062;-67
2021/04/26 12:53:20;;;;;;;1.77;0.90;;;12.40;35.10;;;;;;5064524;28;20507;-67
2021/04/26 12:55:55;;;;;;;2.25;1.00;;;12.50;34.90;;;;;;5047267;28;20021;-67
2021/04/26 12:58:27;;;;;;;2.60;0.88;;;12.60;34.90;;;;;;5061334;28;20109;-67
2021/04/26 13:00:57;;;;;;;2.60;1.08;;;12.60;34.50;;;;;;5052085;28;20025;-67